sensor_id;sensor_type;location;lat;lon;timestamp;temperature;humidity
80579;SHT31;69939;52.402;6.608;2024-03-02T00:00:05;7.75;81.38
80579;SHT31;69939;52.402;6.608;2024-03-02T00:02:50;7.81;80.98
80579;SHT31;69939;52.402;6.608;2024-03-02T00:05:42;7.86;81.08
80579;SHT31;69939;52.402;6.608;2024-03-02T00:08:26;7.86;81.06
80579;SHT31;69939;52.402;6.608;2024-03-02T00:11:30;7.92;80.95
80579;SHT31;69939;52.402;6.608;2024-03-02T00:14:17;7.95;80.83
80579;SHT31;69939;52.402;6.608;2024-03-02T00:17:29;7.99;80.73
80579;SHT31;69939;52.402;6.608;2024-03-02T00:20:10;8.02;80.63
80579;SHT31;69939;52.402;6.608;2024-03-02T00:22:49;7.99;80.95
80579;SHT31;69939;52.402;6.608;2024-03-02T00:25:27;8.02;80.90
80579;SHT31;69939;52.402;6.608;2024-03-02T00:28:16;8.04;80.61
80579;SHT31;69939;52.402;6.608;2024-03-02T00:31:02;8.04;80.73
80579;SHT31;69939;52.402;6.608;2024-03-02T00:33:41;8.06;80.84
80579;SHT31;69939;52.402;6.608;2024-03-02T00:36:14;8.07;80.65
80579;SHT31;69939;52.402;6.608;2024-03-02T00:38:46;8.07;80.57
80579;SHT31;69939;52.402;6.608;2024-03-02T00:41:22;8.03;80.47
80579;SHT31;69939;52.402;6.608;2024-03-02T00:44:02;8.09;80.46
80579;SHT31;69939;52.402;6.608;2024-03-02T00:46:43;8.09;80.56
80579;SHT31;69939;52.402;6.608;2024-03-02T00:49:23;8.07;80.64
80579;SHT31;69939;52.402;6.608;2024-03-02T00:51:54;8.04;80.73
80579;SHT31;69939;52.402;6.608;2024-03-02T00:54:36;8.09;80.37
80579;SHT31;69939;52.402;6.608;2024-03-02T00:57:16;8.12;80.23
80579;SHT31;69939;52.402;6.608;2024-03-02T00:59:50;8.13;80.25
80579;SHT31;69939;52.402;6.608;2024-03-02T01:02:37;8.20;80.07
80579;SHT31;69939;52.402;6.608;2024-03-02T01:05:12;8.20;79.98
80579;SHT31;69939;52.402;6.608;2024-03-02T01:07:42;8.24;80.09
80579;SHT31;69939;52.402;6.608;2024-03-02T01:10:14;8.23;79.99
80579;SHT31;69939;52.402;6.608;2024-03-02T01:12:56;8.26;80.28
80579;SHT31;69939;52.402;6.608;2024-03-02T01:15:27;8.23;80.31
80579;SHT31;69939;52.402;6.608;2024-03-02T01:17:59;8.20;80.13
80579;SHT31;69939;52.402;6.608;2024-03-02T01:20:37;8.17;80.45
80579;SHT31;69939;52.402;6.608;2024-03-02T01:23:09;8.10;80.43
80579;SHT31;69939;52.402;6.608;2024-03-02T01:25:42;8.07;80.96
80579;SHT31;69939;52.402;6.608;2024-03-02T01:28:30;8.00;81.23
80579;SHT31;69939;52.402;6.608;2024-03-02T01:31:11;7.95;81.08
80579;SHT31;69939;52.402;6.608;2024-03-02T01:34:08;7.92;81.24
80579;SHT31;69939;52.402;6.608;2024-03-02T01:36:52;7.87;81.26
80579;SHT31;69939;52.402;6.608;2024-03-02T01:39:26;7.89;81.71
80579;SHT31;69939;52.402;6.608;2024-03-02T01:41:57;7.92;81.58
80579;SHT31;69939;52.402;6.608;2024-03-02T01:44:31;7.95;81.41
80579;SHT31;69939;52.402;6.608;2024-03-02T01:47:11;7.90;81.54
80579;SHT31;69939;52.402;6.608;2024-03-02T01:49:49;7.92;81.52
80579;SHT31;69939;52.402;6.608;2024-03-02T01:52:36;7.89;81.83
80579;SHT31;69939;52.402;6.608;2024-03-02T01:55:18;7.82;81.94
80579;SHT31;69939;52.402;6.608;2024-03-02T01:57:58;7.74;82.34
80579;SHT31;69939;52.402;6.608;2024-03-02T02:00:36;7.72;82.47
80579;SHT31;69939;52.402;6.608;2024-03-02T02:03:19;7.75;82.54
80579;SHT31;69939;52.402;6.608;2024-03-02T02:06:04;7.82;81.91
80579;SHT31;69939;52.402;6.608;2024-03-02T02:08:40;7.89;82.04
80579;SHT31;69939;52.402;6.608;2024-03-02T02:11:20;7.95;81.82
80579;SHT31;69939;52.402;6.608;2024-03-02T02:13:58;8.02;81.78
80579;SHT31;69939;52.402;6.608;2024-03-02T02:16:32;8.07;81.51
80579;SHT31;69939;52.402;6.608;2024-03-02T02:19:14;8.10;81.32
80579;SHT31;69939;52.402;6.608;2024-03-02T02:22:03;8.16;81.11
80579;SHT31;69939;52.402;6.608;2024-03-02T02:24:43;8.17;81.26
80579;SHT31;69939;52.402;6.608;2024-03-02T02:27:20;8.20;81.55
80579;SHT31;69939;52.402;6.608;2024-03-02T02:29:54;8.24;80.85
80579;SHT31;69939;52.402;6.608;2024-03-02T02:32:30;8.30;80.77
80579;SHT31;69939;52.402;6.608;2024-03-02T02:35:01;8.24;80.79
80579;SHT31;69939;52.402;6.608;2024-03-02T02:37:57;8.26;82.04
80579;SHT31;69939;52.402;6.608;2024-03-02T02:40:29;8.27;81.43
80579;SHT31;69939;52.402;6.608;2024-03-02T02:43:14;8.24;81.24
80579;SHT31;69939;52.402;6.608;2024-03-02T02:45:44;8.29;80.70
80579;SHT31;69939;52.402;6.608;2024-03-02T02:48:17;8.33;81.47
80579;SHT31;69939;52.402;6.608;2024-03-02T02:51:04;8.27;81.52
80579;SHT31;69939;52.402;6.608;2024-03-02T02:53:44;8.30;81.15
80579;SHT31;69939;52.402;6.608;2024-03-02T02:56:16;8.30;80.99
80579;SHT31;69939;52.402;6.608;2024-03-02T02:58:54;8.31;81.02
80579;SHT31;69939;52.402;6.608;2024-03-02T03:01:34;8.33;81.15
80579;SHT31;69939;52.402;6.608;2024-03-02T03:04:07;8.36;81.11
80579;SHT31;69939;52.402;6.608;2024-03-02T03:06:39;8.33;81.39
80579;SHT31;69939;52.402;6.608;2024-03-02T03:09:11;8.30;81.49
80579;SHT31;69939;52.402;6.608;2024-03-02T03:11:49;8.33;81.02
80579;SHT31;69939;52.402;6.608;2024-03-02T03:14:25;8.34;81.27
80579;SHT31;69939;52.402;6.608;2024-03-02T03:16:56;8.30;81.54
80579;SHT31;69939;52.402;6.608;2024-03-02T03:19:29;8.22;81.68
80579;SHT31;69939;52.402;6.608;2024-03-02T03:22:17;8.16;81.90
80579;SHT31;69939;52.402;6.608;2024-03-02T03:24:53;8.13;82.11
80579;SHT31;69939;52.402;6.608;2024-03-02T03:27:44;8.12;82.45
80579;SHT31;69939;52.402;6.608;2024-03-02T03:30:19;8.09;82.44
80579;SHT31;69939;52.402;6.608;2024-03-02T03:32:54;8.10;82.43
80579;SHT31;69939;52.402;6.608;2024-03-02T03:35:27;8.09;82.65
80579;SHT31;69939;52.402;6.608;2024-03-02T03:38:00;8.09;82.78
80579;SHT31;69939;52.402;6.608;2024-03-02T03:40:36;8.12;82.91
80579;SHT31;69939;52.402;6.608;2024-03-02T03:43:22;8.12;82.88
80579;SHT31;69939;52.402;6.608;2024-03-02T03:46:03;8.04;83.32
80579;SHT31;69939;52.402;6.608;2024-03-02T03:48:52;8.02;83.29
80579;SHT31;69939;52.402;6.608;2024-03-02T03:51:47;8.03;83.25
80579;SHT31;69939;52.402;6.608;2024-03-02T03:54:28;8.03;82.96
80579;SHT31;69939;52.402;6.608;2024-03-02T03:57:20;8.04;82.93
80579;SHT31;69939;52.402;6.608;2024-03-02T04:00:08;8.04;83.32
80579;SHT31;69939;52.402;6.608;2024-03-02T04:02:42;8.07;83.04
80579;SHT31;69939;52.402;6.608;2024-03-02T04:05:19;8.10;83.35
80579;SHT31;69939;52.402;6.608;2024-03-02T04:07:52;8.12;83.14
80579;SHT31;69939;52.402;6.608;2024-03-02T04:10:28;8.13;83.46
80579;SHT31;69939;52.402;6.608;2024-03-02T04:13:01;8.12;83.31
80579;SHT31;69939;52.402;6.608;2024-03-02T04:15:42;8.09;83.72
80579;SHT31;69939;52.402;6.608;2024-03-02T04:18:14;8.03;84.07
80579;SHT31;69939;52.402;6.608;2024-03-02T04:20:54;8.02;83.92
80579;SHT31;69939;52.402;6.608;2024-03-02T04:23:29;8.00;83.95
80579;SHT31;69939;52.402;6.608;2024-03-02T04:26:04;7.99;84.31
80579;SHT31;69939;52.402;6.608;2024-03-02T04:28:36;8.04;84.39
80579;SHT31;69939;52.402;6.608;2024-03-02T04:31:22;8.20;84.32
80579;SHT31;69939;52.402;6.608;2024-03-02T04:33:59;8.47;83.52
80579;SHT31;69939;52.402;6.608;2024-03-02T04:36:30;8.61;82.52
80579;SHT31;69939;52.402;6.608;2024-03-02T04:39:01;8.71;82.46
80579;SHT31;69939;52.402;6.608;2024-03-02T04:41:39;8.67;82.95
80579;SHT31;69939;52.402;6.608;2024-03-02T04:44:15;8.67;82.66
80579;SHT31;69939;52.402;6.608;2024-03-02T04:47:03;8.73;82.46
80579;SHT31;69939;52.402;6.608;2024-03-02T04:49:51;8.69;82.51
80579;SHT31;69939;52.402;6.608;2024-03-02T04:52:41;8.72;82.59
80579;SHT31;69939;52.402;6.608;2024-03-02T04:55:19;8.69;82.75
80579;SHT31;69939;52.402;6.608;2024-03-02T04:58:15;8.68;83.05
80579;SHT31;69939;52.402;6.608;2024-03-02T05:01:03;8.64;82.95
80579;SHT31;69939;52.402;6.608;2024-03-02T05:03:51;8.62;83.39
80579;SHT31;69939;52.402;6.608;2024-03-02T05:09:24;8.50;83.36
80579;SHT31;69939;52.402;6.608;2024-03-02T05:12:06;8.41;82.75
80579;SHT31;69939;52.402;6.608;2024-03-02T05:14:57;8.26;83.46
80579;SHT31;69939;52.402;6.608;2024-03-02T05:17:45;8.09;83.94
80579;SHT31;69939;52.402;6.608;2024-03-02T05:20:27;8.03;84.17
80579;SHT31;69939;52.402;6.608;2024-03-02T05:23:04;8.04;83.73
80579;SHT31;69939;52.402;6.608;2024-03-02T05:26:10;7.99;83.83
80579;SHT31;69939;52.402;6.608;2024-03-02T05:29:00;8.00;83.70
80579;SHT31;69939;52.402;6.608;2024-03-02T05:31:41;7.83;84.39
80579;SHT31;69939;52.402;6.608;2024-03-02T05:34:18;7.79;84.59
80579;SHT31;69939;52.402;6.608;2024-03-02T05:37:01;7.66;84.91
80579;SHT31;69939;52.402;6.608;2024-03-02T05:50:12;7.40;85.69
80579;SHT31;69939;52.402;6.608;2024-03-02T05:53:23;7.27;86.05
80579;SHT31;69939;52.402;6.608;2024-03-02T05:56:26;7.16;86.76
80579;SHT31;69939;52.402;6.608;2024-03-02T05:59:27;7.23;86.66
80579;SHT31;69939;52.402;6.608;2024-03-02T06:02:18;7.28;86.75
80579;SHT31;69939;52.402;6.608;2024-03-02T06:05:07;7.32;86.65
80579;SHT31;69939;52.402;6.608;2024-03-02T06:07:58;7.40;86.61
80579;SHT31;69939;52.402;6.608;2024-03-02T06:10:43;7.47;86.38
80579;SHT31;69939;52.402;6.608;2024-03-02T06:13:31;7.50;85.77
80579;SHT31;69939;52.402;6.608;2024-03-02T06:16:13;7.43;86.24
80579;SHT31;69939;52.402;6.608;2024-03-02T06:18:56;7.40;85.96
80579;SHT31;69939;52.402;6.608;2024-03-02T06:21:33;7.21;86.80
80579;SHT31;69939;52.402;6.608;2024-03-02T06:24:12;7.08;87.04
80579;SHT31;69939;52.402;6.608;2024-03-02T06:26:43;7.04;87.04
80579;SHT31;69939;52.402;6.608;2024-03-02T06:29:22;7.01;87.24
80579;SHT31;69939;52.402;6.608;2024-03-02T06:32:08;6.95;87.56
80579;SHT31;69939;52.402;6.608;2024-03-02T06:34:42;6.85;87.72
80579;SHT31;69939;52.402;6.608;2024-03-02T06:37:14;6.78;87.92
80579;SHT31;69939;52.402;6.608;2024-03-02T06:39:44;6.75;88.18
80579;SHT31;69939;52.402;6.608;2024-03-02T06:42:13;6.75;88.22
80579;SHT31;69939;52.402;6.608;2024-03-02T06:44:43;6.76;88.15
80579;SHT31;69939;52.402;6.608;2024-03-02T06:47:12;6.76;88.42
80579;SHT31;69939;52.402;6.608;2024-03-02T06:49:42;6.76;88.76
80579;SHT31;69939;52.402;6.608;2024-03-02T06:52:14;6.78;88.67
80579;SHT31;69939;52.402;6.608;2024-03-02T06:54:44;6.82;88.50
80579;SHT31;69939;52.402;6.608;2024-03-02T06:57:13;6.93;88.09
80579;SHT31;69939;52.402;6.608;2024-03-02T06:59:49;6.95;87.88
80579;SHT31;69939;52.402;6.608;2024-03-02T07:02:20;7.01;87.64
80579;SHT31;69939;52.402;6.608;2024-03-02T07:04:55;7.06;87.35
80579;SHT31;69939;52.402;6.608;2024-03-02T07:07:25;7.08;87.20
80579;SHT31;69939;52.402;6.608;2024-03-02T07:09:54;7.14;87.12
80579;SHT31;69939;52.402;6.608;2024-03-02T07:12:23;7.14;86.82
80579;SHT31;69939;52.402;6.608;2024-03-02T07:14:53;7.23;86.51
80579;SHT31;69939;52.402;6.608;2024-03-02T07:17:34;7.32;86.14
80579;SHT31;69939;52.402;6.608;2024-03-02T07:20:07;7.44;85.75
80579;SHT31;69939;52.402;6.608;2024-03-02T07:22:38;7.51;85.60
80579;SHT31;69939;52.402;6.608;2024-03-02T07:25:07;7.55;85.49
80579;SHT31;69939;52.402;6.608;2024-03-02T07:27:37;7.62;85.33
80579;SHT31;69939;52.402;6.608;2024-03-02T07:30:08;7.71;85.38
80579;SHT31;69939;52.402;6.608;2024-03-02T07:32:39;8.33;84.04
80579;SHT31;69939;52.402;6.608;2024-03-02T07:35:14;8.93;82.04
80579;SHT31;69939;52.402;6.608;2024-03-02T07:37:43;9.38;80.63
80579;SHT31;69939;52.402;6.608;2024-03-02T07:40:22;9.92;79.18
80579;SHT31;69939;52.402;6.608;2024-03-02T07:42:52;10.33;77.54
80579;SHT31;69939;52.402;6.608;2024-03-02T07:45:22;10.60;76.68
80579;SHT31;69939;52.402;6.608;2024-03-02T07:47:52;10.74;76.25
80579;SHT31;69939;52.402;6.608;2024-03-02T07:50:23;10.84;75.40
80579;SHT31;69939;52.402;6.608;2024-03-02T07:52:52;11.05;74.78
80579;SHT31;69939;52.402;6.608;2024-03-02T07:55:24;11.16;74.85
80579;SHT31;69939;52.402;6.608;2024-03-02T07:57:53;11.49;73.19
80579;SHT31;69939;52.402;6.608;2024-03-02T08:00:22;11.50;73.55
80579;SHT31;69939;52.402;6.608;2024-03-02T08:02:55;11.88;72.83
80579;SHT31;69939;52.402;6.608;2024-03-02T08:05:25;11.97;71.76
80579;SHT31;69939;52.402;6.608;2024-03-02T08:08:00;11.87;72.40
80579;SHT31;69939;52.402;6.608;2024-03-02T08:10:29;11.50;73.68
80579;SHT31;69939;52.402;6.608;2024-03-02T08:12:59;11.29;74.36
80579;SHT31;69939;52.402;6.608;2024-03-02T08:15:34;10.87;75.65
80579;SHT31;69939;52.402;6.608;2024-03-02T08:18:04;10.94;75.08
80579;SHT31;69939;52.402;6.608;2024-03-02T08:20:34;10.67;75.92
80579;SHT31;69939;52.402;6.608;2024-03-02T08:23:04;10.37;76.73
80579;SHT31;69939;52.402;6.608;2024-03-02T08:25:33;10.15;77.85
80579;SHT31;69939;52.402;6.608;2024-03-02T08:28:03;10.37;77.16
80579;SHT31;69939;52.402;6.608;2024-03-02T08:30:36;11.04;76.27
80579;SHT31;69939;52.402;6.608;2024-03-02T08:33:05;11.52;74.46
80579;SHT31;69939;52.402;6.608;2024-03-02T08:35:34;11.26;75.22
80579;SHT31;69939;52.402;6.608;2024-03-02T08:38:04;11.44;75.70
80579;SHT31;69939;52.402;6.608;2024-03-02T08:40:33;11.81;74.44
80579;SHT31;69939;52.402;6.608;2024-03-02T08:43:03;11.39;74.42
80579;SHT31;69939;52.402;6.608;2024-03-02T08:45:35;11.65;75.25
80579;SHT31;69939;52.402;6.608;2024-03-02T08:48:06;11.69;75.18
80579;SHT31;69939;52.402;6.608;2024-03-02T08:50:37;11.74;74.81
80579;SHT31;69939;52.402;6.608;2024-03-02T08:53:06;12.22;73.75
80579;SHT31;69939;52.402;6.608;2024-03-02T08:55:35;12.20;73.79
80579;SHT31;69939;52.402;6.608;2024-03-02T08:58:05;12.08;74.16
80579;SHT31;69939;52.402;6.608;2024-03-02T09:00:37;11.90;73.85
80579;SHT31;69939;52.402;6.608;2024-03-02T09:03:07;11.77;74.42
80579;SHT31;69939;52.402;6.608;2024-03-02T09:05:37;11.56;74.79
80579;SHT31;69939;52.402;6.608;2024-03-02T09:08:06;11.35;76.18
80579;SHT31;69939;52.402;6.608;2024-03-02T09:10:36;11.25;75.54
80579;SHT31;69939;52.402;6.608;2024-03-02T09:13:05;11.67;75.44
80579;SHT31;69939;52.402;6.608;2024-03-02T09:15:37;11.90;72.83
80579;SHT31;69939;52.402;6.608;2024-03-02T09:18:07;11.53;73.94
80579;SHT31;69939;52.402;6.608;2024-03-02T09:20:43;12.04;74.05
80579;SHT31;69939;52.402;6.608;2024-03-02T09:23:12;12.13;73.64
80579;SHT31;69939;52.402;6.608;2024-03-02T09:25:42;12.04;72.21
80579;SHT31;69939;52.402;6.608;2024-03-02T09:28:11;11.74;72.84
80579;SHT31;69939;52.402;6.608;2024-03-02T09:30:40;11.33;74.26
80579;SHT31;69939;52.402;6.608;2024-03-02T09:33:10;11.38;74.85
80579;SHT31;69939;52.402;6.608;2024-03-02T09:35:42;11.65;73.97
80579;SHT31;69939;52.402;6.608;2024-03-02T09:38:12;11.70;72.85
80579;SHT31;69939;52.402;6.608;2024-03-02T09:40:41;11.90;72.37
80579;SHT31;69939;52.402;6.608;2024-03-02T09:43:11;11.87;73.33
80579;SHT31;69939;52.402;6.608;2024-03-02T09:45:42;12.20;72.79
80579;SHT31;69939;52.402;6.608;2024-03-02T09:48:13;12.60;71.14
80579;SHT31;69939;52.402;6.608;2024-03-02T09:50:48;11.66;74.07
80579;SHT31;69939;52.402;6.608;2024-03-02T09:53:18;12.02;74.44
80579;SHT31;69939;52.402;6.608;2024-03-02T09:55:47;12.28;71.31
80579;SHT31;69939;52.402;6.608;2024-03-02T09:58:17;11.60;73.12
80579;SHT31;69939;52.402;6.608;2024-03-02T10:00:46;11.76;73.55
80579;SHT31;69939;52.402;6.608;2024-03-02T10:03:18;11.81;72.69
80579;SHT31;69939;52.402;6.608;2024-03-02T10:05:50;12.20;71.20
80579;SHT31;69939;52.402;6.608;2024-03-02T10:08:20;11.99;72.68
80579;SHT31;69939;52.402;6.608;2024-03-02T10:10:50;11.99;70.81
80579;SHT31;69939;52.402;6.608;2024-03-02T10:13:25;11.98;70.54
80579;SHT31;69939;52.402;6.608;2024-03-02T10:15:54;12.41;70.20
80579;SHT31;69939;52.402;6.608;2024-03-02T10:18:26;12.84;69.56
80579;SHT31;69939;52.402;6.608;2024-03-02T10:21:13;13.25;69.32
80579;SHT31;69939;52.402;6.608;2024-03-02T10:23:45;13.44;68.29
80579;SHT31;69939;52.402;6.608;2024-03-02T10:26:17;13.55;67.66
80579;SHT31;69939;52.402;6.608;2024-03-02T10:28:48;13.20;66.03
80579;SHT31;69939;52.402;6.608;2024-03-02T10:31:24;13.38;65.49
80579;SHT31;69939;52.402;6.608;2024-03-02T10:33:54;12.79;68.55
80579;SHT31;69939;52.402;6.608;2024-03-02T10:36:28;13.52;66.54
80579;SHT31;69939;52.402;6.608;2024-03-02T10:38:57;13.91;64.76
80579;SHT31;69939;52.402;6.608;2024-03-02T10:41:28;14.14;64.98
80579;SHT31;69939;52.402;6.608;2024-03-02T10:44:02;14.00;62.84
80579;SHT31;69939;52.402;6.608;2024-03-02T10:46:33;14.71;60.79
80579;SHT31;69939;52.402;6.608;2024-03-02T10:49:05;14.48;62.51
80579;SHT31;69939;52.402;6.608;2024-03-02T10:51:38;14.00;63.00
80579;SHT31;69939;52.402;6.608;2024-03-02T10:54:10;14.45;61.55
80579;SHT31;69939;52.402;6.608;2024-03-02T10:56:40;13.54;61.98
80579;SHT31;69939;52.402;6.608;2024-03-02T10:59:24;14.49;61.44
80579;SHT31;69939;52.402;6.608;2024-03-02T11:01:59;13.66;63.06
80579;SHT31;69939;52.402;6.608;2024-03-02T11:04:30;15.03;61.23
80579;SHT31;69939;52.402;6.608;2024-03-02T11:07:05;15.55;59.77
80579;SHT31;69939;52.402;6.608;2024-03-02T11:09:38;15.62;60.32
80579;SHT31;69939;52.402;6.608;2024-03-02T11:12:13;15.40;59.19
80579;SHT31;69939;52.402;6.608;2024-03-02T11:14:48;14.76;61.08
80579;SHT31;69939;52.402;6.608;2024-03-02T11:17:21;14.31;61.99
80579;SHT31;69939;52.402;6.608;2024-03-02T11:19:51;14.06;62.95
80579;SHT31;69939;52.402;6.608;2024-03-02T11:22:24;13.73;62.42
80579;SHT31;69939;52.402;6.608;2024-03-02T11:24:54;14.23;61.74
80579;SHT31;69939;52.402;6.608;2024-03-02T11:30:53;15.22;59.44
80579;SHT31;69939;52.402;6.608;2024-03-02T11:33:24;15.57;59.96
80579;SHT31;69939;52.402;6.608;2024-03-02T11:35:57;14.95;59.98
80579;SHT31;69939;52.402;6.608;2024-03-02T11:38:31;15.10;60.33
80579;SHT31;69939;52.402;6.608;2024-03-02T11:41:02;15.46;61.09
80579;SHT31;69939;52.402;6.608;2024-03-02T11:43:40;14.95;61.71
80579;SHT31;69939;52.402;6.608;2024-03-02T11:46:15;15.64;60.07
80579;SHT31;69939;52.402;6.608;2024-03-02T11:48:50;16.06;58.70
80579;SHT31;69939;52.402;6.608;2024-03-02T11:51:19;16.32;59.11
80579;SHT31;69939;52.402;6.608;2024-03-02T11:53:50;17.28;55.00
80579;SHT31;69939;52.402;6.608;2024-03-02T11:56:22;17.07;55.50
80579;SHT31;69939;52.402;6.608;2024-03-02T11:58:54;16.61;57.32
80579;SHT31;69939;52.402;6.608;2024-03-02T12:01:24;17.69;54.47
80579;SHT31;69939;52.402;6.608;2024-03-02T12:03:58;17.70;51.89
80579;SHT31;69939;52.402;6.608;2024-03-02T12:06:28;17.51;52.40
80579;SHT31;69939;52.402;6.608;2024-03-02T12:08:58;16.94;54.80
80579;SHT31;69939;52.402;6.608;2024-03-02T12:11:28;16.81;56.14
80579;SHT31;69939;52.402;6.608;2024-03-02T12:14:03;17.23;54.47
80579;SHT31;69939;52.402;6.608;2024-03-02T12:16:32;17.35;53.27
80579;SHT31;69939;52.402;6.608;2024-03-02T12:19:03;17.29;54.47
80579;SHT31;69939;52.402;6.608;2024-03-02T12:21:32;16.32;54.90
80579;SHT31;69939;52.402;6.608;2024-03-02T12:24:02;17.46;54.06
80579;SHT31;69939;52.402;6.608;2024-03-02T12:26:31;16.63;53.57
80579;SHT31;69939;52.402;6.608;2024-03-02T12:29:03;16.71;53.38
80579;SHT31;69939;52.402;6.608;2024-03-02T12:31:39;16.09;57.87
80579;SHT31;69939;52.402;6.608;2024-03-02T12:34:09;16.73;55.29
80579;SHT31;69939;52.402;6.608;2024-03-02T12:36:38;17.73;53.29
80579;SHT31;69939;52.402;6.608;2024-03-02T12:39:08;18.22;50.97
80579;SHT31;69939;52.402;6.608;2024-03-02T12:41:37;17.53;50.71
80579;SHT31;69939;52.402;6.608;2024-03-02T12:44:07;17.65;51.90
80579;SHT31;69939;52.402;6.608;2024-03-02T12:46:42;17.43;52.11
80579;SHT31;69939;52.402;6.608;2024-03-02T12:49:22;17.16;53.93
80579;SHT31;69939;52.402;6.608;2024-03-02T12:51:53;17.80;52.35
80579;SHT31;69939;52.402;6.608;2024-03-02T12:54:23;17.49;53.09
80579;SHT31;69939;52.402;6.608;2024-03-02T12:56:52;18.02;51.88
80579;SHT31;69939;52.402;6.608;2024-03-02T12:59:24;18.14;50.20
80579;SHT31;69939;52.402;6.608;2024-03-02T13:01:56;17.65;51.67
80579;SHT31;69939;52.402;6.608;2024-03-02T13:04:28;17.87;52.27
80579;SHT31;69939;52.402;6.608;2024-03-02T13:06:58;17.81;52.17
80579;SHT31;69939;52.402;6.608;2024-03-02T13:09:28;17.15;51.94
80579;SHT31;69939;52.402;6.608;2024-03-02T13:12:01;17.69;51.90
80579;SHT31;69939;52.402;6.608;2024-03-02T13:14:36;17.35;51.64
80579;SHT31;69939;52.402;6.608;2024-03-02T13:17:08;16.63;52.60
80579;SHT31;69939;52.402;6.608;2024-03-02T13:19:51;16.30;54.62
80579;SHT31;69939;52.402;6.608;2024-03-02T13:22:21;15.53;56.63
80579;SHT31;69939;52.402;6.608;2024-03-02T13:24:51;14.92;57.08
80579;SHT31;69939;52.402;6.608;2024-03-02T13:27:22;14.96;56.26
80579;SHT31;69939;52.402;6.608;2024-03-02T13:29:52;15.27;55.80
80579;SHT31;69939;52.402;6.608;2024-03-02T13:32:23;15.54;55.52
80579;SHT31;69939;52.402;6.608;2024-03-02T13:34:55;15.69;54.75
80579;SHT31;69939;52.402;6.608;2024-03-02T13:37:25;15.69;54.34
80579;SHT31;69939;52.402;6.608;2024-03-02T13:39:55;15.68;55.73
80579;SHT31;69939;52.402;6.608;2024-03-02T13:42:24;15.48;54.38
80579;SHT31;69939;52.402;6.608;2024-03-02T13:44:54;15.20;55.08
80579;SHT31;69939;52.402;6.608;2024-03-02T13:47:24;15.36;56.01
80579;SHT31;69939;52.402;6.608;2024-03-02T13:49:56;15.23;56.01
80579;SHT31;69939;52.402;6.608;2024-03-02T13:52:27;15.20;56.73
80579;SHT31;69939;52.402;6.608;2024-03-02T13:54:56;15.26;55.45
80579;SHT31;69939;52.402;6.608;2024-03-02T13:57:26;15.37;55.45
80579;SHT31;69939;52.402;6.608;2024-03-02T13:59:56;15.99;54.42
80579;SHT31;69939;52.402;6.608;2024-03-02T14:02:27;15.89;53.53
80579;SHT31;69939;52.402;6.608;2024-03-02T14:05:02;15.85;54.22
80579;SHT31;69939;52.402;6.608;2024-03-02T14:07:34;16.54;54.81
80579;SHT31;69939;52.402;6.608;2024-03-02T14:10:04;17.11;52.55
80579;SHT31;69939;52.402;6.608;2024-03-02T14:12:34;17.02;51.46
80579;SHT31;69939;52.402;6.608;2024-03-02T14:15:07;16.82;51.96
80579;SHT31;69939;52.402;6.608;2024-03-02T14:17:37;16.43;51.73
80579;SHT31;69939;52.402;6.608;2024-03-02T14:20:11;16.22;52.25
80579;SHT31;69939;52.402;6.608;2024-03-02T14:22:40;15.75;52.46
80579;SHT31;69939;52.402;6.608;2024-03-02T14:25:10;15.34;55.62
80579;SHT31;69939;52.402;6.608;2024-03-02T14:27:39;15.41;54.77
80579;SHT31;69939;52.402;6.608;2024-03-02T14:30:16;15.46;55.62
80579;SHT31;69939;52.402;6.608;2024-03-02T14:32:46;15.27;55.44
80579;SHT31;69939;52.402;6.608;2024-03-02T14:35:19;15.10;56.99
80579;SHT31;69939;52.402;6.608;2024-03-02T14:37:48;14.99;54.95
80579;SHT31;69939;52.402;6.608;2024-03-02T14:40:18;14.92;55.66
80579;SHT31;69939;52.402;6.608;2024-03-02T14:42:51;14.79;56.39
80579;SHT31;69939;52.402;6.608;2024-03-02T14:45:20;14.86;56.34
80579;SHT31;69939;52.402;6.608;2024-03-02T14:47:50;15.16;56.13
80579;SHT31;69939;52.402;6.608;2024-03-02T14:50:25;15.62;55.68
80579;SHT31;69939;52.402;6.608;2024-03-02T14:52:54;15.89;54.36
80579;SHT31;69939;52.402;6.608;2024-03-02T14:55:27;16.05;54.31
80579;SHT31;69939;52.402;6.608;2024-03-02T14:58:03;16.12;54.87
80579;SHT31;69939;52.402;6.608;2024-03-02T15:00:33;15.91;55.27
80579;SHT31;69939;52.402;6.608;2024-03-02T15:03:04;15.86;54.91
80579;SHT31;69939;52.402;6.608;2024-03-02T15:05:39;15.81;54.75
80579;SHT31;69939;52.402;6.608;2024-03-02T15:08:09;15.44;54.97
80579;SHT31;69939;52.402;6.608;2024-03-02T15:10:38;15.37;55.78
80579;SHT31;69939;52.402;6.608;2024-03-02T15:13:07;15.22;56.01
80579;SHT31;69939;52.402;6.608;2024-03-02T15:15:40;15.13;57.22
80579;SHT31;69939;52.402;6.608;2024-03-02T15:18:10;15.20;56.27
80579;SHT31;69939;52.402;6.608;2024-03-02T15:20:41;15.75;55.13
80579;SHT31;69939;52.402;6.608;2024-03-02T15:23:11;15.88;54.82
80579;SHT31;69939;52.402;6.608;2024-03-02T15:25:42;15.51;55.06
80579;SHT31;69939;52.402;6.608;2024-03-02T15:28:12;15.04;56.36
80579;SHT31;69939;52.402;6.608;2024-03-02T15:30:41;14.79;58.13
80579;SHT31;69939;52.402;6.608;2024-03-02T15:33:11;14.42;59.16
80579;SHT31;69939;52.402;6.608;2024-03-02T15:35:42;14.13;58.76
80579;SHT31;69939;52.402;6.608;2024-03-02T15:38:17;14.00;58.33
80579;SHT31;69939;52.402;6.608;2024-03-02T15:40:47;13.83;57.79
80579;SHT31;69939;52.402;6.608;2024-03-02T15:43:18;13.95;57.85
80579;SHT31;69939;52.402;6.608;2024-03-02T15:45:49;13.96;58.65
80579;SHT31;69939;52.402;6.608;2024-03-02T15:48:19;14.00;58.11
80579;SHT31;69939;52.402;6.608;2024-03-02T15:50:49;14.28;58.54
80579;SHT31;69939;52.402;6.608;2024-03-02T15:53:23;15.03;57.38
80579;SHT31;69939;52.402;6.608;2024-03-02T15:55:53;15.81;55.61
80579;SHT31;69939;52.402;6.608;2024-03-02T15:58:22;15.85;54.70
80579;SHT31;69939;52.402;6.608;2024-03-02T16:00:52;15.57;56.24
80579;SHT31;69939;52.402;6.608;2024-03-02T16:03:21;16.10;55.68
80579;SHT31;69939;52.402;6.608;2024-03-02T16:05:59;16.74;53.77
80579;SHT31;69939;52.402;6.608;2024-03-02T16:08:29;17.28;52.29
80579;SHT31;69939;52.402;6.608;2024-03-02T16:10:58;17.80;51.37
80579;SHT31;69939;52.402;6.608;2024-03-02T16:13:35;18.52;50.84
80579;SHT31;69939;52.402;6.608;2024-03-02T16:16:05;18.70;49.98
80579;SHT31;69939;52.402;6.608;2024-03-02T16:18:35;18.38;50.75
80579;SHT31;69939;52.402;6.608;2024-03-02T16:21:05;18.14;50.95
80579;SHT31;69939;52.402;6.608;2024-03-02T16:23:34;17.87;51.66
80579;SHT31;69939;52.402;6.608;2024-03-02T16:26:04;17.97;51.90
80579;SHT31;69939;52.402;6.608;2024-03-02T16:28:37;17.93;52.15
80579;SHT31;69939;52.402;6.608;2024-03-02T16:31:06;17.73;52.61
80579;SHT31;69939;52.402;6.608;2024-03-02T16:33:36;17.08;54.25
80579;SHT31;69939;52.402;6.608;2024-03-02T16:36:06;16.56;55.00
80579;SHT31;69939;52.402;6.608;2024-03-02T16:38:44;16.12;55.94
80579;SHT31;69939;52.402;6.608;2024-03-02T16:41:13;16.30;56.18